sensor_id;sensor_type;location;lat;lon;timestamp;P1;durP1;ratioP1;P2;durP2;ratioP2
48859;SDS011;34679;51.436;-2.518;2024-01-15T00:00:41;1.67;;;0.88;;
48859;SDS011;34679;51.436;-2.518;2024-01-15T00:03:07;1.25;;;0.63;;
48859;SDS011;34679;51.436;-2.518;2024-01-15T00:05:34;7.43;;;1.48;;
48859;SDS011;34679;51.436;-2.518;2024-01-15T00:08:00;1.92;;;0.88;;
48859;SDS011;34679;51.436;-2.518;2024-01-15T00:10:25;2.80;;;0.95;;
48859;SDS011;34679;51.436;-2.518;2024-01-15T00:12:51;2.08;;;0.70;;
48859;SDS011;34679;51.436;-2.518;2024-01-15T00:15:25;0.93;;;0.70;;
48859;SDS011;34679;51.436;-2.518;2024-01-15T00:17:53;2.20;;;0.50;;
48859;SDS011;34679;51.436;-2.518;2024-01-15T00:20:19;1.45;;;0.75;;
48859;SDS011;34679;51.436;-2.518;2024-01-15T00:22:44;3.22;;;0.80;;
48859;SDS011;34679;51.436;-2.518;2024-01-15T00:25:10;7.63;;;0.88;;
48859;SDS011;34679;51.436;-2.518;2024-01-15T00:27:36;3.30;;;0.75;;
48859;SDS011;34679;51.436;-2.518;2024-01-15T00:30:02;3.60;;;0.85;;
48859;SDS011;34679;51.436;-2.518;2024-01-15T00:32:29;3.63;;;0.90;;
48859;SDS011;34679;51.436;-2.518;2024-01-15T00:34:55;2.58;;;0.68;;
48859;SDS011;34679;51.436;-2.518;2024-01-15T00:37:22;0.90;;;0.70;;
48859;SDS011;34679;51.436;-2.518;2024-01-15T00:39:47;2.30;;;0.60;;
48859;SDS011;34679;51.436;-2.518;2024-01-15T00:42:13;1.45;;;0.55;;
48859;SDS011;34679;51.436;-2.518;2024-01-15T00:44:39;3.65;;;0.80;;
48859;SDS011;34679;51.436;-2.518;2024-01-15T00:47:04;3.90;;;0.70;;
48859;SDS011;34679;51.436;-2.518;2024-01-15T00:49:30;2.75;;;0.95;;
48859;SDS011;34679;51.436;-2.518;2024-01-15T00:51:56;1.52;;;0.90;;
48859;SDS011;34679;51.436;-2.518;2024-01-15T00:54:21;1.30;;;0.88;;
48859;SDS011;34679;51.436;-2.518;2024-01-15T00:56:50;5.93;;;1.05;;
48859;SDS011;34679;51.436;-2.518;2024-01-15T00:59:15;2.63;;;0.82;;
48859;SDS011;34679;51.436;-2.518;2024-01-15T01:01:41;2.08;;;0.82;;
48859;SDS011;34679;51.436;-2.518;2024-01-15T01:04:08;2.15;;;0.73;;
48859;SDS011;34679;51.436;-2.518;2024-01-15T01:06:34;7.53;;;0.90;;
48859;SDS011;34679;51.436;-2.518;2024-01-15T01:09:00;6.32;;;0.75;;
48859;SDS011;34679;51.436;-2.518;2024-01-15T01:11:26;3.85;;;0.80;;
48859;SDS011;34679;51.436;-2.518;2024-01-15T01:13:52;2.88;;;1.27;;
48859;SDS011;34679;51.436;-2.518;2024-01-15T01:16:17;2.60;;;0.88;;
48859;SDS011;34679;51.436;-2.518;2024-01-15T01:18:43;1.65;;;0.90;;
48859;SDS011;34679;51.436;-2.518;2024-01-15T01:21:09;3.33;;;0.60;;
48859;SDS011;34679;51.436;-2.518;2024-01-15T01:23:34;2.55;;;0.70;;
48859;SDS011;34679;51.436;-2.518;2024-01-15T01:26:00;4.57;;;0.90;;
48859;SDS011;34679;51.436;-2.518;2024-01-15T01:28:26;1.77;;;0.80;;
48859;SDS011;34679;51.436;-2.518;2024-01-15T01:30:51;4.97;;;0.60;;
48859;SDS011;34679;51.436;-2.518;2024-01-15T01:33:17;1.75;;;0.60;;
48859;SDS011;34679;51.436;-2.518;2024-01-15T01:35:43;6.25;;;1.10;;
48859;SDS011;34679;51.436;-2.518;2024-01-15T01:38:10;1.52;;;0.60;;
48859;SDS011;34679;51.436;-2.518;2024-01-15T01:40:35;2.60;;;0.75;;
48859;SDS011;34679;51.436;-2.518;2024-01-15T01:43:02;3.13;;;0.88;;
48859;SDS011;34679;51.436;-2.518;2024-01-15T01:45:29;1.42;;;0.60;;
48859;SDS011;34679;51.436;-2.518;2024-01-15T01:47:55;2.00;;;0.68;;
48859;SDS011;34679;51.436;-2.518;2024-01-15T01:50:20;1.48;;;0.85;;
48859;SDS011;34679;51.436;-2.518;2024-01-15T01:52:47;4.35;;;0.65;;
48859;SDS011;34679;51.436;-2.518;2024-01-15T01:55:13;0.65;;;0.40;;
48859;SDS011;34679;51.436;-2.518;2024-01-15T01:57:39;2.85;;;0.75;;
48859;SDS011;34679;51.436;-2.518;2024-01-15T02:00:06;1.13;;;0.35;;
48859;SDS011;34679;51.436;-2.518;2024-01-15T02:02:33;2.83;;;0.40;;
48859;SDS011;34679;51.436;-2.518;2024-01-15T02:04:59;3.33;;;0.60;;
48859;SDS011;34679;51.436;-2.518;2024-01-15T02:07:25;2.55;;;0.63;;
48859;SDS011;34679;51.436;-2.518;2024-01-15T02:09:50;2.65;;;0.70;;
48859;SDS011;34679;51.436;-2.518;2024-01-15T02:12:16;7.10;;;0.88;;
48859;SDS011;34679;51.436;-2.518;2024-01-15T02:14:42;3.83;;;0.40;;
48859;SDS011;34679;51.436;-2.518;2024-01-15T02:17:08;5.18;;;0.80;;
48859;SDS011;34679;51.436;-2.518;2024-01-15T02:19:33;2.22;;;0.98;;
48859;SDS011;34679;51.436;-2.518;2024-01-15T02:21:59;0.98;;;0.60;;
48859;SDS011;34679;51.436;-2.518;2024-01-15T02:24:25;4.18;;;0.60;;
48859;SDS011;34679;51.436;-2.518;2024-01-15T02:26:50;1.55;;;0.50;;
48859;SDS011;34679;51.436;-2.518;2024-01-15T02:29:16;2.45;;;0.45;;
48859;SDS011;34679;51.436;-2.518;2024-01-15T02:31:43;3.22;;;0.70;;
48859;SDS011;34679;51.436;-2.518;2024-01-15T02:34:08;4.43;;;0.65;;
48859;SDS011;34679;51.436;-2.518;2024-01-15T02:36:34;2.42;;;0.55;;
48859;SDS011;34679;51.436;-2.518;2024-01-15T02:39:00;2.70;;;0.73;;
48859;SDS011;34679;51.436;-2.518;2024-01-15T02:41:25;1.52;;;0.50;;
48859;SDS011;34679;51.436;-2.518;2024-01-15T02:43:51;3.13;;;0.70;;
48859;SDS011;34679;51.436;-2.518;2024-01-15T02:46:17;2.22;;;1.20;;
48859;SDS011;34679;51.436;-2.518;2024-01-15T02:48:42;1.00;;;0.90;;
48859;SDS011;34679;51.436;-2.518;2024-01-15T02:51:08;6.18;;;0.90;;
48859;SDS011;34679;51.436;-2.518;2024-01-15T02:53:35;2.17;;;0.90;;
48859;SDS011;34679;51.436;-2.518;2024-01-15T02:56:01;2.88;;;0.70;;
48859;SDS011;34679;51.436;-2.518;2024-01-15T02:58:27;2.67;;;1.02;;
48859;SDS011;34679;51.436;-2.518;2024-01-15T03:00:52;2.38;;;0.70;;
48859;SDS011;34679;51.436;-2.518;2024-01-15T03:03:18;2.80;;;0.93;;
48859;SDS011;34679;51.436;-2.518;2024-01-15T03:05:43;3.95;;;0.70;;
48859;SDS011;34679;51.436;-2.518;2024-01-15T03:08:09;3.72;;;1.00;;
48859;SDS011;34679;51.436;-2.518;2024-01-15T03:10:35;2.60;;;0.80;;
48859;SDS011;34679;51.436;-2.518;2024-01-15T03:13:00;5.35;;;1.45;;
48859;SDS011;34679;51.436;-2.518;2024-01-15T03:15:26;2.17;;;0.82;;
48859;SDS011;34679;51.436;-2.518;2024-01-15T03:17:52;0.95;;;0.68;;
48859;SDS011;34679;51.436;-2.518;2024-01-15T03:20:18;2.55;;;0.82;;
48859;SDS011;34679;51.436;-2.518;2024-01-15T03:22:43;2.05;;;1.00;;
48859;SDS011;34679;51.436;-2.518;2024-01-15T03:25:09;1.85;;;0.88;;
48859;SDS011;34679;51.436;-2.518;2024-01-15T03:27:35;1.80;;;1.10;;
48859;SDS011;34679;51.436;-2.518;2024-01-15T03:30:00;1.33;;;0.60;;
48859;SDS011;34679;51.436;-2.518;2024-01-15T03:32:27;0.90;;;0.65;;
48859;SDS011;34679;51.436;-2.518;2024-01-15T03:34:53;6.32;;;1.13;;
48859;SDS011;34679;51.436;-2.518;2024-01-15T03:37:18;1.35;;;0.90;;
48859;SDS011;34679;51.436;-2.518;2024-01-15T03:39:44;1.13;;;0.70;;
48859;SDS011;34679;51.436;-2.518;2024-01-15T03:42:10;7.20;;;1.00;;
48859;SDS011;34679;51.436;-2.518;2024-01-15T03:44:36;2.97;;;1.10;;
48859;SDS011;34679;51.436;-2.518;2024-01-15T03:47:02;4.57;;;1.88;;
48859;SDS011;34679;51.436;-2.518;2024-01-15T03:49:27;2.05;;;0.70;;
48859;SDS011;34679;51.436;-2.518;2024-01-15T03:51:53;2.15;;;1.20;;
48859;SDS011;34679;51.436;-2.518;2024-01-15T03:54:19;3.45;;;1.08;;
48859;SDS011;34679;51.436;-2.518;2024-01-15T03:56:44;2.95;;;1.02;;
48859;SDS011;34679;51.436;-2.518;2024-01-15T03:59:10;1.77;;;0.80;;
48859;SDS011;34679;51.436;-2.518;2024-01-15T04:01:36;4.22;;;1.20;;
48859;SDS011;34679;51.436;-2.518;2024-01-15T04:04:01;2.30;;;0.90;;
48859;SDS011;34679;51.436;-2.518;2024-01-15T04:06:27;2.90;;;1.23;;
48859;SDS011;34679;51.436;-2.518;2024-01-15T04:08:53;2.67;;;1.25;;
48859;SDS011;34679;51.436;-2.518;2024-01-15T04:11:18;4.03;;;1.00;;
48859;SDS011;34679;51.436;-2.518;2024-01-15T04:13:44;4.30;;;1.00;;
48859;SDS011;34679;51.436;-2.518;2024-01-15T04:16:10;2.58;;;0.90;;
48859;SDS011;34679;51.436;-2.518;2024-01-15T04:18:35;3.05;;;0.80;;
48859;SDS011;34679;51.436;-2.518;2024-01-15T04:21:03;3.92;;;0.80;;
48859;SDS011;34679;51.436;-2.518;2024-01-15T04:23:30;6.45;;;0.80;;
48859;SDS011;34679;51.436;-2.518;2024-01-15T04:25:56;4.60;;;0.90;;
48859;SDS011;34679;51.436;-2.518;2024-01-15T04:28:22;4.82;;;0.70;;
48859;SDS011;34679;51.436;-2.518;2024-01-15T04:30:48;1.35;;;0.65;;
48859;SDS011;34679;51.436;-2.518;2024-01-15T04:33:13;3.20;;;0.70;;
48859;SDS011;34679;51.436;-2.518;2024-01-15T04:35:39;0.82;;;0.57;;
48859;SDS011;34679;51.436;-2.518;2024-01-15T04:38:05;2.58;;;0.60;;
48859;SDS011;34679;51.436;-2.518;2024-01-15T04:40:30;3.55;;;0.82;;
48859;SDS011;34679;51.436;-2.518;2024-01-15T04:42:56;1.05;;;0.50;;
48859;SDS011;34679;51.436;-2.518;2024-01-15T04:45:22;3.17;;;0.73;;
48859;SDS011;34679;51.436;-2.518;2024-01-15T04:47:53;2.22;;;0.60;;
48859;SDS011;34679;51.436;-2.518;2024-01-15T04:50:19;2.92;;;0.60;;
48859;SDS011;34679;51.436;-2.518;2024-01-15T04:52:44;2.38;;;0.68;;
48859;SDS011;34679;51.436;-2.518;2024-01-15T04:55:10;1.05;;;0.47;;
48859;SDS011;34679;51.436;-2.518;2024-01-15T04:57:35;2.60;;;0.55;;
48859;SDS011;34679;51.436;-2.518;2024-01-15T05:00:01;3.55;;;0.60;;
48859;SDS011;34679;51.436;-2.518;2024-01-15T05:02:27;3.53;;;0.82;;
48859;SDS011;34679;51.436;-2.518;2024-01-15T05:04:53;2.33;;;0.60;;
48859;SDS011;34679;51.436;-2.518;2024-01-15T05:07:19;2.88;;;0.80;;
48859;SDS011;34679;51.436;-2.518;2024-01-15T05:09:44;2.83;;;0.60;;
48859;SDS011;34679;51.436;-2.518;2024-01-15T05:12:10;4.45;;;0.90;;
48859;SDS011;34679;51.436;-2.518;2024-01-15T05:14:36;4.28;;;0.80;;
48859;SDS011;34679;51.436;-2.518;2024-01-15T05:17:02;1.13;;;0.40;;
48859;SDS011;34679;51.436;-2.518;2024-01-15T05:19:28;4.32;;;0.50;;
48859;SDS011;34679;51.436;-2.518;2024-01-15T05:21:53;1.38;;;0.50;;
48859;SDS011;34679;51.436;-2.518;2024-01-15T05:24:19;3.85;;;0.77;;
48859;SDS011;34679;51.436;-2.518;2024-01-15T05:26:45;5.35;;;0.82;;
48859;SDS011;34679;51.436;-2.518;2024-01-15T05:29:10;1.42;;;0.47;;
48859;SDS011;34679;51.436;-2.518;2024-01-15T05:31:36;3.17;;;0.60;;
48859;SDS011;34679;51.436;-2.518;2024-01-15T05:34:02;1.55;;;0.57;;
48859;SDS011;34679;51.436;-2.518;2024-01-15T05:36:27;6.03;;;0.73;;
48859;SDS011;34679;51.436;-2.518;2024-01-15T05:38:53;1.83;;;0.43;;
48859;SDS011;34679;51.436;-2.518;2024-01-15T05:41:19;5.72;;;0.68;;
48859;SDS011;34679;51.436;-2.518;2024-01-15T05:43:44;4.78;;;0.75;;
48859;SDS011;34679;51.436;-2.518;2024-01-15T05:46:10;10.45;;;0.90;;
48859;SDS011;34679;51.436;-2.518;2024-01-15T05:48:36;3.00;;;0.60;;
48859;SDS011;34679;51.436;-2.518;2024-01-15T05:51:01;2.25;;;0.70;;
48859;SDS011;34679;51.436;-2.518;2024-01-15T05:53:27;1.63;;;0.50;;
48859;SDS011;34679;51.436;-2.518;2024-01-15T05:55:53;1.08;;;0.60;;
48859;SDS011;34679;51.436;-2.518;2024-01-15T05:58:20;2.13;;;0.50;;
48859;SDS011;34679;51.436;-2.518;2024-01-15T06:00:46;3.08;;;0.40;;
48859;SDS011;34679;51.436;-2.518;2024-01-15T06:03:13;5.10;;;0.40;;
48859;SDS011;34679;51.436;-2.518;2024-01-15T06:05:38;2.30;;;0.63;;
48859;SDS011;34679;51.436;-2.518;2024-01-15T06:08:04;2.53;;;0.50;;
48859;SDS011;34679;51.436;-2.518;2024-01-15T06:10:30;4.20;;;1.05;;
48859;SDS011;34679;51.436;-2.518;2024-01-15T06:12:56;1.33;;;0.80;;
48859;SDS011;34679;51.436;-2.518;2024-01-15T06:15:21;0.77;;;0.40;;
48859;SDS011;34679;51.436;-2.518;2024-01-15T06:17:47;4.63;;;0.73;;
48859;SDS011;34679;51.436;-2.518;2024-01-15T06:20:13;1.40;;;0.43;;
48859;SDS011;34679;51.436;-2.518;2024-01-15T06:22:39;1.50;;;0.65;;
48859;SDS011;34679;51.436;-2.518;2024-01-15T06:25:06;2.80;;;0.65;;
48859;SDS011;34679;51.436;-2.518;2024-01-15T06:27:32;2.92;;;0.80;;
48859;SDS011;34679;51.436;-2.518;2024-01-15T06:29:58;3.17;;;0.88;;
48859;SDS011;34679;51.436;-2.518;2024-01-15T06:32:26;3.00;;;0.70;;
48859;SDS011;34679;51.436;-2.518;2024-01-15T06:34:51;3.15;;;0.77;;
48859;SDS011;34679;51.436;-2.518;2024-01-15T06:37:17;1.40;;;0.52;;
48859;SDS011;34679;51.436;-2.518;2024-01-15T06:39:45;6.30;;;0.75;;
48859;SDS011;34679;51.436;-2.518;2024-01-15T06:42:10;3.13;;;0.73;;
48859;SDS011;34679;51.436;-2.518;2024-01-15T06:44:36;3.20;;;0.75;;
48859;SDS011;34679;51.436;-2.518;2024-01-15T06:47:02;4.63;;;0.88;;
48859;SDS011;34679;51.436;-2.518;2024-01-15T06:49:28;5.25;;;0.82;;
48859;SDS011;34679;51.436;-2.518;2024-01-15T06:51:54;5.57;;;1.00;;
48859;SDS011;34679;51.436;-2.518;2024-01-15T06:54:20;2.22;;;0.63;;
48859;SDS011;34679;51.436;-2.518;2024-01-15T06:56:46;5.07;;;0.88;;
48859;SDS011;34679;51.436;-2.518;2024-01-15T06:59:12;3.63;;;1.05;;
48859;SDS011;34679;51.436;-2.518;2024-01-15T07:01:37;6.30;;;1.10;;
48859;SDS011;34679;51.436;-2.518;2024-01-15T07:04:03;3.97;;;0.95;;
48859;SDS011;34679;51.436;-2.518;2024-01-15T07:06:29;6.80;;;1.08;;
48859;SDS011;34679;51.436;-2.518;2024-01-15T07:08:55;6.80;;;1.00;;
48859;SDS011;34679;51.436;-2.518;2024-01-15T07:11:21;4.82;;;1.00;;
48859;SDS011;34679;51.436;-2.518;2024-01-15T07:13:47;2.35;;;0.82;;
48859;SDS011;34679;51.436;-2.518;2024-01-15T07:16:13;8.57;;;1.10;;
48859;SDS011;34679;51.436;-2.518;2024-01-15T07:18:38;1.52;;;0.82;;
48859;SDS011;34679;51.436;-2.518;2024-01-15T07:21:04;3.72;;;0.82;;
48859;SDS011;34679;51.436;-2.518;2024-01-15T07:23:30;6.07;;;1.63;;
48859;SDS011;34679;51.436;-2.518;2024-01-15T07:25:57;1.05;;;0.73;;
48859;SDS011;34679;51.436;-2.518;2024-01-15T07:28:22;2.90;;;0.60;;
48859;SDS011;34679;51.436;-2.518;2024-01-15T07:30:48;3.38;;;1.00;;
48859;SDS011;34679;51.436;-2.518;2024-01-15T07:33:14;3.08;;;0.93;;
48859;SDS011;34679;51.436;-2.518;2024-01-15T07:35:39;3.08;;;0.85;;
48859;SDS011;34679;51.436;-2.518;2024-01-15T07:38:05;5.07;;;1.20;;
48859;SDS011;34679;51.436;-2.518;2024-01-15T07:40:31;5.55;;;1.08;;
48859;SDS011;34679;51.436;-2.518;2024-01-15T07:42:56;2.30;;;0.88;;
48859;SDS011;34679;51.436;-2.518;2024-01-15T07:45:22;5.35;;;1.40;;
48859;SDS011;34679;51.436;-2.518;2024-01-15T07:47:48;4.55;;;2.17;;
48859;SDS011;34679;51.436;-2.518;2024-01-15T07:50:14;1.70;;;1.30;;
48859;SDS011;34679;51.436;-2.518;2024-01-15T07:52:40;13.18;;;1.45;;
48859;SDS011;34679;51.436;-2.518;2024-01-15T07:55:08;5.82;;;1.02;;
48859;SDS011;34679;51.436;-2.518;2024-01-15T07:57:34;7.68;;;1.05;;
48859;SDS011;34679;51.436;-2.518;2024-01-15T08:00:01;6.82;;;0.80;;
48859;SDS011;34679;51.436;-2.518;2024-01-15T08:02:29;7.10;;;1.80;;
48859;SDS011;34679;51.436;-2.518;2024-01-15T08:04:57;6.47;;;0.82;;
48859;SDS011;34679;51.436;-2.518;2024-01-15T08:07:23;2.17;;;0.77;;
48859;SDS011;34679;51.436;-2.518;2024-01-15T08:09:50;5.85;;;1.35;;
48859;SDS011;34679;51.436;-2.518;2024-01-15T08:12:17;4.05;;;1.10;;
48859;SDS011;34679;51.436;-2.518;2024-01-15T08:14:42;4.75;;;1.33;;
48859;SDS011;34679;51.436;-2.518;2024-01-15T08:17:08;3.80;;;1.40;;
48859;SDS011;34679;51.436;-2.518;2024-01-15T08:19:34;6.07;;;1.45;;
48859;SDS011;34679;51.436;-2.518;2024-01-15T08:22:00;5.80;;;1.52;;
48859;SDS011;34679;51.436;-2.518;2024-01-15T08:24:25;4.15;;;1.23;;
48859;SDS011;34679;51.436;-2.518;2024-01-15T08:26:51;3.05;;;1.20;;
48859;SDS011;34679;51.436;-2.518;2024-01-15T08:29:17;7.25;;;2.05;;
48859;SDS011;34679;51.436;-2.518;2024-01-15T08:31:43;3.55;;;1.27;;
48859;SDS011;34679;51.436;-2.518;2024-01-15T08:34:09;8.48;;;1.80;;
48859;SDS011;34679;51.436;-2.518;2024-01-15T08:36:35;5.70;;;1.40;;
48859;SDS011;34679;51.436;-2.518;2024-01-15T08:39:01;5.22;;;1.55;;
48859;SDS011;34679;51.436;-2.518;2024-01-15T08:41:29;3.92;;;1.80;;
48859;SDS011;34679;51.436;-2.518;2024-01-15T08:43:56;6.88;;;1.63;;
48859;SDS011;34679;51.436;-2.518;2024-01-15T08:46:22;6.57;;;1.65;;
48859;SDS011;34679;51.436;-2.518;2024-01-15T08:48:47;5.07;;;1.30;;
48859;SDS011;34679;51.436;-2.518;2024-01-15T08:51:13;6.57;;;1.63;;
48859;SDS011;34679;51.436;-2.518;2024-01-15T08:53:39;6.10;;;1.35;;
48859;SDS011;34679;51.436;-2.518;2024-01-15T08:56:04;2.83;;;1.65;;
48859;SDS011;34679;51.436;-2.518;2024-01-15T08:58:31;3.17;;;1.40;;
48859;SDS011;34679;51.436;-2.518;2024-01-15T09:00:56;10.00;;;2.00;;
48859;SDS011;34679;51.436;-2.518;2024-01-15T09:03:22;15.88;;;2.30;;
48859;SDS011;34679;51.436;-2.518;2024-01-15T09:05:48;7.88;;;1.92;;
48859;SDS011;34679;51.436;-2.518;2024-01-15T09:08:15;4.72;;;1.85;;
48859;SDS011;34679;51.436;-2.518;2024-01-15T09:10:40;8.98;;;2.20;;
48859;SDS011;34679;51.436;-2.518;2024-01-15T09:13:06;5.60;;;1.80;;
48859;SDS011;34679;51.436;-2.518;2024-01-15T09:15:33;6.82;;;2.22;;
48859;SDS011;34679;51.436;-2.518;2024-01-15T09:17:59;5.50;;;2.45;;
48859;SDS011;34679;51.436;-2.518;2024-01-15T09:20:26;7.63;;;2.88;;
48859;SDS011;34679;51.436;-2.518;2024-01-15T09:22:52;4.57;;;2.33;;
48859;SDS011;34679;51.436;-2.518;2024-01-15T09:25:18;6.85;;;3.25;;
48859;SDS011;34679;51.436;-2.518;2024-01-15T09:27:44;12.38;;;3.10;;
48859;SDS011;34679;51.436;-2.518;2024-01-15T09:30:09;6.43;;;2.75;;
48859;SDS011;34679;51.436;-2.518;2024-01-15T09:32:36;9.15;;;3.10;;
48859;SDS011;34679;51.436;-2.518;2024-01-15T09:35:02;6.10;;;3.83;;
48859;SDS011;34679;51.436;-2.518;2024-01-15T09:37:27;8.40;;;3.30;;
48859;SDS011;34679;51.436;-2.518;2024-01-15T09:39:53;5.28;;;2.17;;
48859;SDS011;34679;51.436;-2.518;2024-01-15T09:42:20;4.60;;;1.85;;
48859;SDS011;34679;51.436;-2.518;2024-01-15T09:44:48;9.40;;;1.45;;
48859;SDS011;34679;51.436;-2.518;2024-01-15T09:47:13;3.13;;;1.30;;
48859;SDS011;34679;51.436;-2.518;2024-01-15T09:49:41;6.47;;;1.52;;
48859;SDS011;34679;51.436;-2.518;2024-01-15T09:52:07;6.07;;;1.23;;
48859;SDS011;34679;51.436;-2.518;2024-01-15T09:54:33;8.63;;;2.55;;
48859;SDS011;34679;51.436;-2.518;2024-01-15T09:57:00;3.38;;;1.40;;
48859;SDS011;34679;51.436;-2.518;2024-01-15T09:59:26;9.50;;;1.20;;
48859;SDS011;34679;51.436;-2.518;2024-01-15T10:01:53;2.75;;;1.27;;
48859;SDS011;34679;51.436;-2.518;2024-01-15T10:04:19;5.80;;;1.42;;
48859;SDS011;34679;51.436;-2.518;2024-01-15T10:06:45;8.50;;;1.40;;
48859;SDS011;34679;51.436;-2.518;2024-01-15T10:09:12;9.50;;;1.60;;
48859;SDS011;34679;51.436;-2.518;2024-01-15T10:11:40;6.75;;;1.55;;
48859;SDS011;34679;51.436;-2.518;2024-01-15T10:14:07;2.95;;;1.40;;
48859;SDS011;34679;51.436;-2.518;2024-01-15T10:16:34;8.70;;;1.30;;
48859;SDS011;34679;51.436;-2.518;2024-01-15T10:18:59;5.00;;;1.33;;
48859;SDS011;34679;51.436;-2.518;2024-01-15T10:21:25;3.28;;;1.10;;
48859;SDS011;34679;51.436;-2.518;2024-01-15T10:23:53;6.32;;;1.77;;
48859;SDS011;34679;51.436;-2.518;2024-01-15T10:26:22;6.78;;;2.10;;
48859;SDS011;34679;51.436;-2.518;2024-01-15T10:28:50;5.32;;;2.15;;
48859;SDS011;34679;51.436;-2.518;2024-01-15T10:31:17;1.60;;;0.88;;
48859;SDS011;34679;51.436;-2.518;2024-01-15T10:33:44;2.92;;;0.90;;
48859;SDS011;34679;51.436;-2.518;2024-01-15T10:36:10;2.42;;;0.70;;
48859;SDS011;34679;51.436;-2.518;2024-01-15T10:38:38;6.18;;;0.52;;
48859;SDS011;34679;51.436;-2.518;2024-01-15T10:41:04;7.88;;;0.75;;
48859;SDS011;34679;51.436;-2.518;2024-01-15T10:46:06;3.58;;;0.80;;
48859;SDS011;34679;51.436;-2.518;2024-01-15T10:48:32;3.83;;;1.52;;
48859;SDS011;34679;51.436;-2.518;2024-01-15T10:51:00;3.58;;;0.52;;
48859;SDS011;34679;51.436;-2.518;2024-01-15T10:53:35;2.45;;;0.90;;
48859;SDS011;34679;51.436;-2.518;2024-01-15T10:56:07;5.20;;;0.98;;
48859;SDS011;34679;51.436;-2.518;2024-01-15T10:58:35;3.22;;;0.80;;
48859;SDS011;34679;51.436;-2.518;2024-01-15T11:01:04;4.30;;;0.52;;
48859;SDS011;34679;51.436;-2.518;2024-01-15T11:03:30;3.13;;;1.02;;
48859;SDS011;34679;51.436;-2.518;2024-01-15T11:05:56;2.22;;;0.73;;
48859;SDS011;34679;51.436;-2.518;2024-01-15T11:08:23;0.85;;;0.43;;
48859;SDS011;34679;51.436;-2.518;2024-01-15T11:10:50;2.65;;;0.82;;
48859;SDS011;34679;51.436;-2.518;2024-01-15T11:13:20;1.45;;;0.60;;
48859;SDS011;34679;51.436;-2.518;2024-01-15T11:18:31;2.15;;;0.40;;
48859;SDS011;34679;51.436;-2.518;2024-01-15T11:21:19;1.23;;;0.55;;
48859;SDS011;34679;51.436;-2.518;2024-01-15T11:23:55;2.70;;;0.50;;
48859;SDS011;34679;51.436;-2.518;2024-01-15T11:34:04;3.72;;;0.60;;
48859;SDS011;34679;51.436;-2.518;2024-01-15T11:41:58;1.80;;;0.63;;
48859;SDS011;34679;51.436;-2.518;2024-01-15T11:44:30;3.00;;;0.80;;
48859;SDS011;34679;51.436;-2.518;2024-01-15T11:47:00;1.65;;;0.40;;
48859;SDS011;34679;51.436;-2.518;2024-01-15T11:52:23;2.58;;;0.30;;
48859;SDS011;34679;51.436;-2.518;2024-01-15T11:54:54;20.05;;;0.95;;
48859;SDS011;34679;51.436;-2.518;2024-01-15T12:00:05;1.75;;;0.40;;
48859;SDS011;34679;51.436;-2.518;2024-01-15T12:02:33;1.85;;;0.55;;
48859;SDS011;34679;51.436;-2.518;2024-01-15T12:04:59;4.97;;;0.77;;
48859;SDS011;34679;51.436;-2.518;2024-01-15T12:07:25;1.65;;;0.40;;
48859;SDS011;34679;51.436;-2.518;2024-01-15T12:09:50;2.38;;;0.45;;
48859;SDS011;34679;51.436;-2.518;2024-01-15T12:12:20;2.05;;;0.40;;
48859;SDS011;34679;51.436;-2.518;2024-01-15T12:14:53;7.18;;;0.65;;
48859;SDS011;34679;51.436;-2.518;2024-01-15T12:17:19;2.72;;;0.50;;
48859;SDS011;34679;51.436;-2.518;2024-01-15T12:19:44;3.72;;;0.60;;
48859;SDS011;34679;51.436;-2.518;2024-01-15T12:22:10;4.30;;;0.55;;
48859;SDS011;34679;51.436;-2.518;2024-01-15T12:24:36;1.05;;;0.90;;
48859;SDS011;34679;51.436;-2.518;2024-01-15T12:27:02;0.30;;;0.30;;
48859;SDS011;34679;51.436;-2.518;2024-01-15T12:29:28;1.58;;;0.30;;
48859;SDS011;34679;51.436;-2.518;2024-01-15T12:31:53;2.72;;;0.40;;
48859;SDS011;34679;51.436;-2.518;2024-01-15T12:34:20;1.55;;;0.50;;
48859;SDS011;34679;51.436;-2.518;2024-01-15T12:36:46;0.82;;;0.50;;
48859;SDS011;34679;51.436;-2.518;2024-01-15T12:39:12;6.68;;;0.95;;
48859;SDS011;34679;51.436;-2.518;2024-01-15T12:41:38;7.55;;;0.82;;
48859;SDS011;34679;51.436;-2.518;2024-01-15T12:44:04;2.65;;;0.40;;
48859;SDS011;34679;51.436;-2.518;2024-01-15T12:46:30;1.02;;;0.43;;
48859;SDS011;34679;51.436;-2.518;2024-01-15T12:48:56;3.22;;;0.80;;
48859;SDS011;34679;51.436;-2.518;2024-01-15T12:51:25;2.67;;;0.47;;
48859;SDS011;34679;51.436;-2.518;2024-01-15T12:53:51;1.30;;;0.50;;
48859;SDS011;34679;51.436;-2.518;2024-01-15T12:56:18;2.60;;;0.70;;
48859;SDS011;34679;51.436;-2.518;2024-01-15T12:58:44;1.92;;;0.70;;
48859;SDS011;34679;51.436;-2.518;2024-01-15T13:01:12;1.05;;;0.40;;
48859;SDS011;34679;51.436;-2.518;2024-01-15T13:03:38;4.72;;;0.55;;
48859;SDS011;34679;51.436;-2.518;2024-01-15T13:06:03;1.15;;;0.47;;
48859;SDS011;34679;51.436;-2.518;2024-01-15T13:08:29;0.85;;;0.40;;
48859;SDS011;34679;51.436;-2.518;2024-01-15T13:10:55;1.88;;;0.50;;
48859;SDS011;34679;51.436;-2.518;2024-01-15T13:13:22;2.50;;;0.50;;
48859;SDS011;34679;51.436;-2.518;2024-01-15T13:15:48;2.05;;;0.80;;
48859;SDS011;34679;51.436;-2.518;2024-01-15T13:18:14;4.90;;;0.52;;
48859;SDS011;34679;51.436;-2.518;2024-01-15T13:20:40;1.90;;;0.73;;
48859;SDS011;34679;51.436;-2.518;2024-01-15T13:23:06;2.38;;;0.50;;
48859;SDS011;34679;51.436;-2.518;2024-01-15T13:25:32;2.75;;;0.45;;
48859;SDS011;34679;51.436;-2.518;2024-01-15T13:28:00;0.35;;;0.25;;
48859;SDS011;34679;51.436;-2.518;2024-01-15T13:30:27;2.13;;;0.60;;
48859;SDS011;34679;51.436;-2.518;2024-01-15T13:32:53;5.38;;;0.95;;
48859;SDS011;34679;51.436;-2.518;2024-01-15T13:35:21;2.08;;;0.70;;
48859;SDS011;34679;51.436;-2.518;2024-01-15T13:37:47;2.92;;;0.70;;
48859;SDS011;34679;51.436;-2.518;2024-01-15T13:40:13;1.83;;;0.57;;
48859;SDS011;34679;51.436;-2.518;2024-01-15T13:42:41;1.55;;;0.73;;
48859;SDS011;34679;51.436;-2.518;2024-01-15T13:45:07;6.25;;;0.75;;
48859;SDS011;34679;51.436;-2.518;2024-01-15T13:47:33;2.58;;;0.60;;
48859;SDS011;34679;51.436;-2.518;2024-01-15T13:49:59;2.42;;;0.60;;
48859;SDS011;34679;51.436;-2.518;2024-01-15T13:52:25;3.67;;;0.93;;
48859;SDS011;34679;51.436;-2.518;2024-01-15T13:54:53;2.35;;;0.65;;
48859;SDS011;34679;51.436;-2.518;2024-01-15T13:57:18;2.90;;;0.75;;
48859;SDS011;34679;51.436;-2.518;2024-01-15T13:59:44;5.85;;;1.10;;
48859;SDS011;34679;51.436;-2.518;2024-01-15T14:02:10;1.67;;;0.82;;
48859;SDS011;34679;51.436;-2.518;2024-01-15T14:04:36;2.78;;;0.70;;
48859;SDS011;34679;51.436;-2.518;2024-01-15T14:07:02;3.50;;;0.57;;
48859;SDS011;34679;51.436;-2.518;2024-01-15T14:09:29;4.65;;;0.73;;
48859;SDS011;34679;51.436;-2.518;2024-01-15T14:11:56;3.58;;;0.50;;
48859;SDS011;34679;51.436;-2.518;2024-01-15T14:14:22;6.38;;;0.75;;
48859;SDS011;34679;51.436;-2.518;2024-01-15T14:16:48;4.35;;;0.70;;
48859;SDS011;34679;51.436;-2.518;2024-01-15T14:19:14;3.97;;;0.93;;
48859;SDS011;34679;51.436;-2.518;2024-01-15T14:21:40;7.68;;;1.20;;
48859;SDS011;34679;51.436;-2.518;2024-01-15T14:24:06;5.15;;;0.80;;
48859;SDS011;34679;51.436;-2.518;2024-01-15T14:26:31;1.52;;;0.95;;
48859;SDS011;34679;51.436;-2.518;2024-01-15T14:28:57;1.30;;;0.70;;
48859;SDS011;34679;51.436;-2.518;2024-01-15T14:31:23;3.83;;;0.80;;
48859;SDS011;34679;51.436;-2.518;2024-01-15T14:33:51;3.30;;;0.63;;
48859;SDS011;34679;51.436;-2.518;2024-01-15T14:36:17;2.97;;;0.70;;
48859;SDS011;34679;51.436;-2.518;2024-01-15T14:38:43;3.70;;;0.73;;
48859;SDS011;34679;51.436;-2.518;2024-01-15T14:41:08;4.15;;;0.70;;
48859;SDS011;34679;51.436;-2.518;2024-01-15T14:43:34;5.53;;;0.80;;
48859;SDS011;34679;51.436;-2.518;2024-01-15T14:46:00;2.33;;;0.65;;
48859;SDS011;34679;51.436;-2.518;2024-01-15T14:48:25;5.15;;;0.70;;
48859;SDS011;34679;51.436;-2.518;2024-01-15T14:50:51;6.88;;;0.90;;